Hauptseite
METAR-TAF:

METAR-TAF

Flughäfen :

Heeresflugplatz Fritzlar

Fritzlar, Deutschland

Breite: 51-07N, Länge: 009-17E, Höhe: 172 m

Beobachtung

Neuester Wetterbericht von vor 37 Minuten, um 01:20 UTC
Wind 5 kt aus Nordwest
Temperatur 18°C
Luftfeuchtigkeit 59%
Luftdruck 1010 hPa
Sichtweite 10 km oder mehr
Durchbrochene Bewölkung in der Höhe von 10000 ft

METAR: ETHF 210120Z 32005KT 9999 BKN100 18/10 Q1010 BLU

Zeit: 03:57 (01:57 UTC)

Prognose

Neuester Wetterbericht von vor 16 Stunden und 14 Minuten, um 09:43 UTC
Gültige Prognose vom 20 um 08 UTC bis 20 um 17 UTC
Wind 3 kt aus unterschiedlichen Richtungen
Sichtweite: 1000 m
Leicht bewölkt in der Höhe von 7000 ft
Durchbrochene Bewölkung in der Höhe von 25000 ft

TAF: ETHF 200943Z 2008/2017 VRB03KT 9999 NSW FEW070 BKN250 CANCEL 1000

Wetterbeobachtungen und Prognosen von mehr als 4000 Flughäfen (METAR und TAF Bericht).

Die verfügbaren Stationen werden durch gelbe und rote Markierungen auf der Karte dargestellt.

Führen Sie die Maus auf sie, um den Namen der Station zu sehen.

Darauf klicken, um die Beobachtung von Wetterbeobachtungen und Prognosen zu sehen.

Um die Karte zu ändern : klicken Sie auf den grünen Tasten mit einem schwarzen Kreuz Zum Vergrößern, auf den grünen Button mit einem Gedankenstrich zu verkleinern, oder auf die grünen Pfeile für benachbarte Karten.


METAR-TAF: